Ikke nødvendig med spesiell oppmerksomhet.   -   Ingen advarsler for øyeblikket

METAR Rapporter

 

ENZV - Stavanger
Oppdatert: 18/02/2019 17:20
hovedsaklig skyet
hovedsaklig skyet
 Vind fra S
Vind: S 33 km/h
Temperatur: 7°C
Vindkjøling: 3°C
Duggpunkt: 5°C
Fuktighet: 87%
Barometer: 1004 hPa
Skyet: hovedsaklig skyet
Sikt: 10 km
Cloud details: hovedsaklig skyet 274 m
2019/02/18 16:20 ENZV 181620Z 18018KT 9999 BKN009 07/05 Q1004 TEMPO BKN012
ENBR - Bergen
Oppdatert: 18/02/2019 17:20
hovedsaklig skyet
hovedsaklig skyet
 Vind fra S
Vind: S 39 km/h
Temperatur: 7°C
Vindkjøling: 2°C
Duggpunkt: 5°C
Fuktighet: 87%
Barometer: 1001 hPa
Skyet: hovedsaklig skyet
Sikt: 9 km
Cloud details: hovedsaklig skyet 335 m
2019/02/18 16:20 ENBR 181620Z 18021KT 9000 BKN011 07/05 Q1001 NOSIG RMK WIND 1200FT 17024G38KT
 
ENHD - Haugesund
Oppdatert: 18/02/2019 16:50
hovedsaklig skyet
hovedsaklig skyet
 Vind fra S
Vind: S 39 km/h
Temperatur: 7°C
Vindkjøling: 2°C
Duggpunkt: 5°C
Fuktighet: 87%
Barometer: 1002 hPa
Skyet: hovedsaklig skyet
Sikt: 9 km
Cloud details: hovedsaklig skyet 244 m
2019/02/18 15:50 ENHD 181550Z 18021KT 9000 BKN008 07/05 Q1002
ENCN - Kristiansand
Oppdatert: 18/02/2019 17:20
Mist, overskyet
Mist, overskyet
 Vind fra SSV
Vind: SSV 17 km/h
Temperatur: 6°C
Vindkjøling: 3°C
Duggpunkt: 6°C
Fuktighet: 100%
Barometer: 1008 hPa
Oversikt: Mist
Skyet: overskyet
Sikt: 5 km
Cloud details: overskyet 122 m
2019/02/18 16:20 ENCN 181620Z 20009KT 5000 BR OVC004 06/06 Q1008
 
ENBO - Bodø
Oppdatert: 18/02/2019 17:20
Byger i nærheten, hovedsaklig skyet
Byger i nærheten, hovedsaklig skyet
 Vind fra SSV
Vind: SSV 24 km/h
Temperatur: 6°C
Vindkjøling: 2°C
Duggpunkt: 3°C
Fuktighet: 81%
Barometer: 991 hPa
Oversikt: Nearby Showers
Skyet: hovedsaklig skyet
Sikt: 10 km
Cloud details: Few Clouds 549 m
delvis skyet 762 m
hovedsaklig skyet 1829 m
2019/02/18 16:20 ENBO 181620Z 20013KT 9999 VCSH FEW018TCU SCT025 BKN060 06/03 Q0991 TEMPO 23025G35KT
ENKR - Kirkenes
Oppdatert: 18/02/2019 16:50
Lett snø, overskyet
Lett snø, overskyet
 Vind fra ØSØ
Vind: ØSØ 20 km/h
Temperatur: -10°C
Vindkjøling: -18°C
Duggpunkt: -12°C
Fuktighet: 85%
Barometer: 1000 hPa
Oversikt: Lett snø
Skyet: overskyet
Sikt: 4 km
Cloud details: overskyet 183 m
2019/02/18 15:50 ENKR 181550Z 12011KT 3800 -SN VV006 M10/M12 Q1000 RMK WIND 731FT 11011KT
 
ENVA - Trondheim
Oppdatert: 18/02/2019 17:20
klart
klart
 Vind fra S
Vind: S 26 km/h
Temperatur: 8°C
Vindkjøling: 4°C
Duggpunkt: -1°C
Fuktighet: 53%
Barometer: 996 hPa
Oversikt: klart
Sikt: greater than 10 km
2019/02/18 16:20 ENVA 181620Z 18014KT CAVOK 08/M01 Q0996 NOSIG RMK WIND 670FT 18021KT
ENGM - Oslo
Oppdatert: 18/02/2019 17:20
Tåke, overskyet
Tåke, overskyet
 Vind fra SSV
Vind: SSV 20 km/h
Temperatur: 2°C
Vindkjøling: -3°C
Duggpunkt: 2°C
Fuktighet: 100%
Barometer: 1005 hPa
Oversikt: Tåke
Skyet: overskyet
Sikt: 1 km
Cloud details: overskyet 30 m
2019/02/18 16:20 ENGM 181620Z 20011KT 0500 R19R/0400N R01R/0650N FG VV001 02/02 Q1005 TEMPO 0700 FG VV002